Time;durP1;ratioP1;P1;durP2;ratioP2;P2;SDS_P1;SDS_P2;PMS_P1;PMS_P2;Temp;Humidity;BMP_temperature;BMP_pressure;BME280_temperature;BME280_humidity;BME280_pressure;Samples;Min_cycle;Max_cycle;Signal;HPM_P1;HPM_P2
2023/08/07 00:01:41;;;;;;;6.17;2.10;;;15.70;99.90;;;;;;4994911;28;20474;-57
2023/08/07 00:04:08;;;;;;;2.67;2.40;;;15.80;99.90;;;;;;4995618;28;20802;-61
2023/08/07 00:06:36;;;;;;;4.27;2.10;;;15.70;99.90;;;;;;4999057;28;20513;-60
2023/08/07 00:09:03;;;;;;;3.17;2.70;;;15.70;99.90;;;;;;5004527;28;20446;-60
2023/08/07 00:11:30;;;;;;;3.80;2.50;;;15.80;99.90;;;;;;5008019;28;20450;-60
2023/08/07 00:13:58;;;;;;;6.07;2.70;;;15.70;99.90;;;;;;4999669;28;20469;-62
2023/08/07 00:16:25;;;;;;;4.10;2.50;;;15.70;99.90;;;;;;5001277;28;20468;-60
2023/08/07 00:18:55;;;;;;;3.13;2.47;;;15.70;99.90;;;;;;4999148;28;20536;-61
2023/08/07 00:21:22;;;;;;;3.80;2.43;;;15.80;99.90;;;;;;5004822;28;20478;-60
2023/08/07 00:23:51;;;;;;;5.80;2.70;;;15.80;99.90;;;;;;5005462;28;20488;-58
2023/08/07 00:26:18;;;;;;;3.10;2.43;;;15.80;99.90;;;;;;5007752;28;20473;-58
2023/08/07 00:28:45;;;;;;;2.30;2.10;;;15.80;99.90;;;;;;4998855;28;20477;-59
2023/08/07 00:31:12;;;;;;;3.73;2.77;;;15.70;99.90;;;;;;4998531;28;20477;-59
2023/08/07 00:33:39;;;;;;;4.60;3.07;;;15.70;99.90;;;;;;4998797;28;20450;-58
2023/08/07 00:36:06;;;;;;;2.80;2.50;;;15.70;99.90;;;;;;4998465;28;20446;-61
2023/08/07 00:38:33;;;;;;;3.03;2.50;;;15.60;99.90;;;;;;5001630;28;20539;-61
2023/08/07 00:41:01;;;;;;;4.63;3.10;;;15.60;99.90;;;;;;5005574;28;20477;-61
2023/08/07 00:43:28;;;;;;;19.03;10.87;;;15.60;99.90;;;;;;5008147;28;20445;-58
2023/08/07 00:45:55;;;;;;;5.77;3.90;;;15.60;99.90;;;;;;5015474;28;20465;-57
2023/08/07 00:48:22;;;;;;;3.10;2.70;;;15.60;99.90;;;;;;5015689;28;20461;-57
2023/08/07 00:50:50;;;;;;;8.17;4.17;;;15.60;99.90;;;;;;5015102;28;20535;-60
2023/08/07 00:53:17;;;;;;;3.57;2.80;;;15.70;99.90;;;;;;5015744;28;20814;-57
2023/08/07 00:55:44;;;;;;;3.30;2.90;;;15.70;99.90;;;;;;5015763;28;20453;-57
2023/08/07 00:58:27;;;;;;;4.10;3.10;;;15.70;99.90;;;;;;5019551;28;20454;-56
2023/08/07 01:00:55;;;;;;;9.90;3.30;;;15.70;99.90;;;;;;5016367;28;20484;-52
2023/08/07 01:03:21;;;;;;;4.40;3.10;;;15.60;99.90;;;;;;5003442;28;20798;-60
2023/08/07 01:05:48;;;;;;;7.07;4.20;;;15.60;99.90;;;;;;5001215;28;20470;-60
2023/08/07 01:08:15;;;;;;;4.57;3.47;;;15.50;99.90;;;;;;5000919;28;20450;-61
2023/08/07 01:11:02;;;;;;;3.80;3.40;;;15.60;99.90;;;;;;5003924;28;20512;-59
2023/08/07 01:13:38;;;;;;;3.30;3.00;;;15.60;99.90;;;;;;5008768;28;20476;-56
2023/08/07 01:16:19;;;;;;;5.10;2.80;;;15.70;99.90;;;;;;5016197;28;20482;-59
2023/08/07 01:18:47;;;;;;;3.30;2.70;;;15.60;99.90;;;;;;5018722;28;20415;-60
2023/08/07 01:21:19;;;;;;;6.87;2.80;;;15.60;99.90;;;;;;4998291;28;20584;-60
2023/08/07 01:23:48;;;;;;;3.50;2.83;;;15.60;99.90;;;;;;4997917;28;20434;-59
2023/08/07 01:26:15;;;;;;;5.33;3.10;;;15.60;99.90;;;;;;4997893;28;20508;-58
2023/08/07 01:28:47;;;;;;;3.63;2.80;;;15.50;99.90;;;;;;5002161;28;20483;-58
2023/08/07 01:31:17;;;;;;;2.90;2.60;;;15.60;99.90;;;;;;5008707;28;20432;-58
2023/08/07 01:33:50;;;;;;;4.23;3.10;;;15.60;99.90;;;;;;5008621;28;20955;-61
2023/08/07 01:36:18;;;;;;;4.70;3.27;;;15.60;99.90;;;;;;5004073;28;20454;-60
2023/08/07 01:38:49;;;;;;;2.60;2.30;;;15.60;99.90;;;;;;5010825;28;20453;-60
2023/08/07 01:41:16;;;;;;;4.17;3.17;;;15.60;99.90;;;;;;4997553;28;20810;-60
2023/08/07 01:43:43;;;;;;;4.10;2.90;;;15.60;99.90;;;;;;4997587;28;20524;-61
2023/08/07 01:46:11;;;;;;;4.37;2.90;;;15.70;99.90;;;;;;4997396;28;20557;-60
2023/08/07 01:48:37;;;;;;;3.70;3.00;;;15.70;99.90;;;;;;5014062;28;20442;-53
2023/08/07 01:51:04;;;;;;;4.90;3.20;;;15.70;99.90;;;;;;4998453;28;20913;-58
2023/08/07 01:53:31;;;;;;;5.57;3.60;;;15.70;99.90;;;;;;4997401;28;20462;-61
2023/08/07 01:55:59;;;;;;;6.27;3.00;;;15.60;99.90;;;;;;5007638;28;20454;-47
2023/08/07 01:58:27;;;;;;;3.20;2.90;;;15.60;99.90;;;;;;5020908;28;20446;-45
2023/08/07 02:00:54;;;;;;;3.93;3.27;;;15.50;99.90;;;;;;5020769;28;20547;-51
2023/08/07 02:03:21;;;;;;;7.53;2.97;;;15.50;99.90;;;;;;5019373;28;20455;-50
2023/08/07 02:05:48;;;;;;;10.63;3.83;;;15.40;99.90;;;;;;5019078;28;20431;-51
2023/08/07 02:08:15;;;;;;;5.63;3.80;;;15.40;99.90;;;;;;5018403;28;20421;-56
2023/08/07 02:10:42;;;;;;;3.20;2.67;;;15.30;99.90;;;;;;5018122;28;20545;-54
2023/08/07 02:13:12;;;;;;;5.93;3.30;;;15.20;99.90;;;;;;5018325;28;20434;-58
2023/08/07 02:15:38;;;;;;;5.90;3.23;;;15.30;99.90;;;;;;5018398;28;20473;-60
2023/08/07 02:18:05;;;;;;;11.40;4.60;;;15.30;99.90;;;;;;5018437;28;20406;-59
2023/08/07 02:20:35;;;;;;;5.67;3.60;;;15.20;99.90;;;;;;5018137;28;20470;-55
2023/08/07 02:23:02;;;;;;;7.60;4.07;;;13.40;99.90;;;;;;5018153;28;20513;-57
2023/08/07 02:25:29;;;;;;;7.13;3.30;;;15.30;99.90;;;;;;4997413;28;20541;-60
2023/08/07 02:27:56;;;;;;;10.07;4.10;;;15.20;99.90;;;;;;4996583;28;20557;-60
2023/08/07 02:30:24;;;;;;;3.90;3.40;;;15.20;99.90;;;;;;4996354;28;20422;-60
2023/08/07 02:32:51;;;;;;;6.43;3.70;;;15.30;99.90;;;;;;5002451;28;20445;-57
2023/08/07 02:35:18;;;;;;;4.57;3.20;;;15.20;99.90;;;;;;5000570;28;20505;-60
2023/08/07 02:37:45;;;;;;;5.53;4.20;;;15.30;99.90;;;;;;4998182;28;20481;-50
2023/08/07 02:40:15;;;;;;;5.53;4.00;;;15.30;99.90;;;;;;5020097;28;20434;-49
2023/08/07 02:42:44;;;;;;;8.63;3.70;;;15.30;99.90;;;;;;5020233;28;20431;-51
2023/08/07 02:45:11;;;;;;;9.80;4.40;;;15.30;99.90;;;;;;5019063;28;20457;-60
2023/08/07 02:47:39;;;;;;;5.60;3.60;;;15.30;99.90;;;;;;5017364;28;20501;-57
2023/08/07 02:50:07;;;;;;;4.10;3.50;;;15.30;99.90;;;;;;5017112;28;20469;-56
2023/08/07 02:52:35;;;;;;;3.50;3.20;;;15.30;99.90;;;;;;5016322;28;20485;-59
2023/08/07 02:55:02;;;;;;;5.53;3.97;;;15.40;99.90;;;;;;5006350;28;20465;-60
2023/08/07 02:57:29;;;;;;;5.70;4.07;;;15.40;99.90;;;;;;4997251;28;20492;-59
2023/08/07 02:59:56;;;;;;;5.57;3.57;;;15.50;99.90;;;;;;4995796;28;20472;-60
2023/08/07 03:02:23;;;;;;;6.67;4.03;;;15.50;99.90;;;;;;4996096;28;20569;-60
2023/08/07 03:04:51;;;;;;;7.23;3.70;;;15.60;99.90;;;;;;5001260;28;20557;-60
2023/08/07 03:07:18;;;;;;;7.77;4.47;;;15.60;99.90;;;;;;4997759;28;20493;-58
2023/08/07 03:09:47;;;;;;;6.20;3.90;;;15.60;99.90;;;;;;5002103;28;20442;-61
2023/08/07 03:12:14;;;;;;;8.37;4.27;;;15.60;99.90;;;;;;5012059;28;20450;-59
2023/08/07 03:14:41;;;;;;;6.13;4.10;;;15.60;99.90;;;;;;5017095;28;20434;-57
2023/08/07 03:17:07;;;;;;;6.33;4.57;;;15.60;99.90;;;;;;4998458;28;20501;-60
2023/08/07 03:19:34;;;;;;;6.90;3.83;;;15.60;99.90;;;;;;4996940;28;20521;-62
2023/08/07 03:22:03;;;;;;;5.03;4.47;;;15.60;99.90;;;;;;4998915;28;20565;-58
2023/08/07 03:24:30;;;;;;;7.73;4.70;;;15.60;99.90;;;;;;4998511;28;20525;-57
2023/08/07 03:26:56;;;;;;;6.83;4.47;;;15.60;99.90;;;;;;4998020;28;20524;-59
2023/08/07 03:29:23;;;;;;;5.33;4.30;;;15.60;99.90;;;;;;4995518;28;20549;-60
2023/08/07 03:31:50;;;;;;;8.30;4.73;;;15.60;99.90;;;;;;4995341;28;20481;-59
2023/08/07 03:34:17;;;;;;;7.53;4.50;;;15.60;99.90;;;;;;4995646;28;20442;-58
2023/08/07 03:36:44;;;;;;;9.33;5.00;;;15.60;99.90;;;;;;4996679;28;20470;-57
2023/08/07 03:39:13;;;;;;;5.77;4.43;;;15.50;99.90;;;;;;5006817;28;20454;-57
2023/08/07 03:41:40;;;;;;;6.13;4.20;;;15.50;99.90;;;;;;5007230;28;20493;-59
2023/08/07 03:44:07;;;;;;;5.13;4.20;;;15.50;99.90;;;;;;4995489;28;20528;-60
2023/08/07 03:46:34;;;;;;;9.67;5.53;;;15.50;99.90;;;;;;4995179;28;20442;-60
2023/08/07 03:49:00;;;;;;;7.63;4.80;;;15.40;99.90;;;;;;4996329;28;20478;-59
2023/08/07 03:51:29;;;;;;;9.20;5.37;;;15.50;99.90;;;;;;4995443;28;20485;-60
2023/08/07 03:53:57;;;;;;;8.23;5.10;;;15.40;99.90;;;;;;5000519;28;20492;-59
2023/08/07 03:56:25;;;;;;;9.70;5.13;;;15.50;99.90;;;;;;5004206;28;20454;-61
2023/08/07 03:58:52;;;;;;;9.83;5.27;;;15.60;99.90;;;;;;4995034;28;20504;-61
2023/08/07 04:01:19;;;;;;;6.03;4.17;;;15.60;99.90;;;;;;4995949;28;20525;-59
2023/08/07 04:03:48;;;;;;;6.47;4.40;;;15.50;99.90;;;;;;4996254;28;20477;-60
2023/08/07 04:06:16;;;;;;;7.63;5.03;;;15.50;99.90;;;;;;4995255;28;20465;-59
2023/08/07 04:08:43;;;;;;;11.10;5.23;;;15.50;99.90;;;;;;4995278;28;20453;-59
2023/08/07 04:11:10;;;;;;;9.83;3.93;;;15.50;99.90;;;;;;4995145;28;20941;-57
2023/08/07 04:13:38;;;;;;;4.63;4.20;;;15.50;99.90;;;;;;4995278;28;20505;-58
2023/08/07 04:16:06;;;;;;;5.47;4.70;;;15.50;99.90;;;;;;4994921;28;20473;-60
2023/08/07 04:18:33;;;;;;;8.10;4.53;;;15.50;99.90;;;;;;4994899;28;20533;-59
2023/08/07 04:21:00;;;;;;;5.60;4.07;;;15.60;99.90;;;;;;4995123;28;20577;-61
2023/08/07 04:23:27;;;;;;;7.53;4.40;;;15.60;99.90;;;;;;4995132;28;20480;-61
2023/08/07 04:25:54;;;;;;;6.53;4.90;;;15.60;99.90;;;;;;4995177;28;20541;-59
2023/08/07 04:28:21;;;;;;;10.70;4.63;;;15.60;99.90;;;;;;4995327;28;20474;-60
2023/08/07 04:30:52;;;;;;;5.47;3.77;;;15.60;99.90;;;;;;4995404;28;20524;-60
2023/08/07 04:33:19;;;;;;;7.47;4.10;;;15.60;99.90;;;;;;5000001;28;20594;-52
2023/08/07 04:35:51;;;;;;;4.20;3.77;;;15.60;99.90;;;;;;5018921;28;20409;-51
2023/08/07 04:38:19;;;;;;;4.27;3.67;;;15.60;99.90;;;;;;5016988;28;20429;-60
2023/08/07 04:40:46;;;;;;;5.63;3.37;;;15.60;99.90;;;;;;5000143;28;20460;-60
2023/08/07 04:43:14;;;;;;;7.10;3.53;;;15.60;99.90;;;;;;4994991;28;20537;-61
2023/08/07 04:45:41;;;;;;;7.73;3.90;;;15.60;99.90;;;;;;4995216;28;20509;-61
2023/08/07 04:48:10;;;;;;;6.00;3.97;;;15.60;99.90;;;;;;4994982;28;20826;-59
2023/08/07 04:50:37;;;;;;;5.17;4.00;;;15.60;99.90;;;;;;4995910;28;20984;-62
2023/08/07 04:53:04;;;;;;;6.50;4.40;;;15.60;99.90;;;;;;5002769;28;20438;-60
2023/08/07 04:55:31;;;;;;;4.73;4.00;;;15.60;99.90;;;;;;5001832;28;20500;-57
2023/08/07 04:57:58;;;;;;;8.03;3.60;;;15.60;99.90;;;;;;4998156;28;20549;-61
2023/08/07 05:00:25;;;;;;;6.10;3.70;;;15.70;99.90;;;;;;4998477;28;20538;-61
2023/08/07 05:02:52;;;;;;;6.53;3.37;;;15.70;99.90;;;;;;5000035;28;20525;-62
2023/08/07 05:05:21;;;;;;;5.90;3.10;;;16.00;99.90;;;;;;5005379;28;20931;-59
2023/08/07 05:07:48;;;;;;;4.83;2.90;;;15.70;99.90;;;;;;5015577;28;20803;-57
2023/08/07 05:10:15;;;;;;;5.70;3.77;;;15.70;99.90;;;;;;4999725;28;20557;-60
2023/08/07 05:12:42;;;;;;;5.03;3.30;;;15.70;99.90;;;;;;4997799;28;20466;-60
2023/08/07 05:15:10;;;;;;;5.70;3.10;;;15.70;99.90;;;;;;4999828;28;20457;-60
2023/08/07 05:17:37;;;;;;;6.87;3.87;;;15.70;99.90;;;;;;4999839;28;20820;-61
2023/08/07 05:20:05;;;;;;;3.07;2.57;;;15.80;99.90;;;;;;4997918;28;20450;-60
2023/08/07 05:22:33;;;;;;;5.97;2.90;;;15.80;99.90;;;;;;4997931;28;20518;-58
2023/08/07 05:25:00;;;;;;;8.53;2.90;;;15.80;99.90;;;;;;4997961;28;20474;-61
2023/08/07 05:27:27;;;;;;;5.67;3.20;;;15.80;99.90;;;;;;4997895;28;20477;-60
2023/08/07 05:29:54;;;;;;;5.53;3.17;;;15.80;99.90;;;;;;5000796;28;20554;-59
2023/08/07 05:32:21;;;;;;;2.90;2.63;;;15.70;99.90;;;;;;5006897;28;20457;-61
2023/08/07 05:34:48;;;;;;;2.87;2.40;;;15.70;99.90;;;;;;5009921;28;20438;-60
2023/08/07 05:37:14;;;;;;;4.53;3.33;;;15.70;99.90;;;;;;5015788;28;20418;-56
2023/08/07 05:39:43;;;;;;;3.73;2.60;;;15.70;99.90;;;;;;5017191;28;20461;-56
2023/08/07 05:42:10;;;;;;;5.53;3.50;;;15.70;99.90;;;;;;5018984;28;20486;-57
2023/08/07 05:44:37;;;;;;;7.73;3.40;;;15.60;99.90;;;;;;5006879;28;20457;-60
2023/08/07 05:47:04;;;;;;;5.30;3.37;;;15.60;99.90;;;;;;4998057;28;20470;-60
2023/08/07 05:49:31;;;;;;;3.73;2.73;;;15.60;99.90;;;;;;4999214;28;20477;-60
2023/08/07 05:51:58;;;;;;;5.27;3.17;;;15.70;99.90;;;;;;4997064;28;20536;-58
2023/08/07 05:54:25;;;;;;;4.50;3.23;;;15.70;99.90;;;;;;4997571;28;20536;-59
2023/08/07 05:56:53;;;;;;;3.40;3.03;;;15.80;99.90;;;;;;4997536;28;20506;-60
2023/08/07 05:59:20;;;;;;;5.90;3.10;;;15.80;99.90;;;;;;4998545;28;20469;-59
2023/08/07 06:01:47;;;;;;;6.23;3.73;;;15.90;99.90;;;;;;4998729;28;20560;-61
2023/08/07 06:04:14;;;;;;;2.70;2.50;;;15.90;99.90;;;;;;4997364;28;20836;-56
2023/08/07 06:06:42;;;;;;;4.17;3.23;;;16.00;99.90;;;;;;4999418;28;20541;-60
2023/08/07 06:09:11;;;;;;;4.10;3.57;;;16.00;99.90;;;;;;5008384;28;20458;-54
2023/08/07 06:11:38;;;;;;;4.40;3.13;;;16.10;99.90;;;;;;5018413;28;20465;-59
2023/08/07 06:14:06;;;;;;;5.50;3.57;;;16.20;99.90;;;;;;5018127;28;20497;-60
2023/08/07 06:16:33;;;;;;;8.07;3.00;;;16.20;99.90;;;;;;5018911;28;20414;-51
2023/08/07 06:19:00;;;;;;;7.93;3.27;;;16.30;99.90;;;;;;5000956;28;20445;-60
2023/08/07 06:21:28;;;;;;;5.10;3.23;;;16.40;99.90;;;;;;5000468;28;20572;-60
2023/08/07 06:23:55;;;;;;;2.80;2.50;;;16.50;99.90;;;;;;4998475;28;20508;-60
2023/08/07 06:26:22;;;;;;;3.60;2.60;;;16.50;99.90;;;;;;4998522;28;20874;-61
2023/08/07 06:28:49;;;;;;;4.70;2.60;;;16.70;99.90;;;;;;5003100;28;20469;-59
2023/08/07 06:31:17;;;;;;;3.67;2.77;;;16.80;99.90;;;;;;5016452;28;20480;-57
2023/08/07 06:33:44;;;;;;;6.73;3.20;;;16.90;99.90;;;;;;5018230;28;20442;-59
2023/08/07 06:36:14;;;;;;;7.63;3.10;;;16.80;99.90;;;;;;5017925;28;20478;-55
2023/08/07 06:38:41;;;;;;;3.77;2.60;;;16.90;99.90;;;;;;5008187;28;20457;-60
2023/08/07 06:41:08;;;;;;;2.77;2.33;;;16.90;99.90;;;;;;5010088;28;20450;-59
2023/08/07 06:43:35;;;;;;;2.97;2.40;;;16.90;99.90;;;;;;5006387;28;20526;-61
2023/08/07 06:46:02;;;;;;;3.43;2.17;;;17.00;99.90;;;;;;4997715;28;20442;-62
2023/08/07 06:48:30;;;;;;;3.60;2.47;;;17.00;99.90;;;;;;4996367;28;20524;-61
2023/08/07 06:50:57;;;;;;;4.40;2.30;;;17.10;99.90;;;;;;4996500;28;20458;-62
2023/08/07 06:53:25;;;;;;;4.20;2.40;;;17.10;99.90;;;;;;4998692;28;20493;-62
2023/08/07 06:55:53;;;;;;;4.20;2.60;;;17.10;99.90;;;;;;4996285;28;20528;-60
2023/08/07 06:58:20;;;;;;;4.80;2.47;;;17.20;99.90;;;;;;5000869;28;20458;-60
2023/08/07 07:00:47;;;;;;;3.83;2.60;;;17.20;99.90;;;;;;5013479;28;20477;-58
2023/08/07 07:03:13;;;;;;;8.27;2.80;;;17.30;99.90;;;;;;5013546;28;20477;-60
2023/08/07 07:05:42;;;;;;;2.43;2.23;;;17.30;99.90;;;;;;5006025;28;20473;-60
2023/08/07 07:08:12;;;;;;;5.37;2.20;;;17.40;99.90;;;;;;5010426;28;20477;-58
2023/08/07 07:10:39;;;;;;;3.57;2.23;;;17.50;99.90;;;;;;5013158;28;20445;-60
2023/08/07 07:13:09;;;;;;;5.30;2.27;;;17.50;99.90;;;;;;5016628;28;20442;-57
2023/08/07 07:15:36;;;;;;;3.87;2.37;;;17.60;99.90;;;;;;5017165;28;20470;-59
2023/08/07 07:18:03;;;;;;;2.93;2.00;;;17.70;99.90;;;;;;5017409;28;20461;-56
2023/08/07 07:20:30;;;;;;;4.40;2.40;;;17.80;99.90;;;;;;5016565;28;20458;-54
2023/08/07 07:22:58;;;;;;;2.73;1.97;;;17.90;99.90;;;;;;5009160;28;20470;-56
2023/08/07 07:25:25;;;;;;;4.30;2.37;;;18.00;99.90;;;;;;5017173;28;20454;-59
2023/08/07 07:27:52;;;;;;;2.43;2.17;;;18.00;99.90;;;;;;5016889;28;20441;-60
2023/08/07 07:30:19;;;;;;;3.80;3.30;;;18.10;99.90;;;;;;5016421;28;20465;-57
2023/08/07 07:32:47;;;;;;;1.93;1.73;;;18.10;99.90;;;;;;5016006;28;20473;-60
2023/08/07 07:35:14;;;;;;;16.87;5.20;;;18.10;99.90;;;;;;5016494;28;20520;-55
2023/08/07 07:37:41;;;;;;;2.40;1.80;;;18.00;99.90;;;;;;5016874;28;20477;-60
2023/08/07 07:40:11;;;;;;;3.50;2.40;;;18.10;99.90;;;;;;5016572;28;20434;-57
2023/08/07 07:42:38;;;;;;;4.70;2.00;;;18.10;99.90;;;;;;5016937;28;20477;-60
2023/08/07 07:45:06;;;;;;;5.07;2.37;;;18.10;99.90;;;;;;5016727;28;20406;-59
2023/08/07 07:47:33;;;;;;;4.73;2.27;;;18.20;99.90;;;;;;5016326;28;20999;-57
2023/08/07 07:50:08;;;;;;;2.77;2.00;;;18.30;99.90;;;;;;4998108;28;20477;-61
2023/08/07 07:52:35;;;;;;;2.30;1.70;;;18.40;99.90;;;;;;5014164;28;20426;-56
2023/08/07 07:55:02;;;;;;;8.43;3.87;;;18.50;99.90;;;;;;5016674;28;20524;-60
2023/08/07 07:57:30;;;;;;;2.50;2.20;;;18.70;99.90;;;;;;5015811;28;20449;-59
2023/08/07 07:59:57;;;;;;;2.70;2.30;;;18.90;99.90;;;;;;5016772;28;20469;-60
2023/08/07 08:02:25;;;;;;;3.03;2.53;;;18.90;99.90;;;;;;5016916;28;20466;-56
2023/08/07 08:04:52;;;;;;;3.50;1.63;;;19.10;99.90;;;;;;5015254;28;20464;-59
2023/08/07 08:07:19;;;;;;;5.43;2.00;;;19.30;99.90;;;;;;5015257;28;20452;-60
2023/08/07 08:09:47;;;;;;;1.97;1.80;;;19.50;99.90;;;;;;5015051;28;20454;-59
2023/08/07 08:12:13;;;;;;;3.40;2.17;;;19.60;99.90;;;;;;5015480;28;20474;-58
2023/08/07 08:14:42;;;;;;;3.33;2.00;;;19.70;99.90;;;;;;5000259;28;20958;-62
2023/08/07 08:17:09;;;;;;;2.83;1.87;;;19.60;99.90;;;;;;4999704;28;20489;-60
2023/08/07 08:19:36;;;;;;;2.13;1.80;;;19.60;99.90;;;;;;5005178;28;20481;-60
2023/08/07 08:22:03;;;;;;;2.90;2.10;;;19.60;99.90;;;;;;5001456;28;20911;-62
2023/08/07 08:24:34;;;;;;;6.50;2.20;;;19.40;99.90;;;;;;5006662;28;20434;-57
2023/08/07 08:27:02;;;;;;;3.73;2.10;;;19.10;99.90;;;;;;5017803;28;20489;-63
2023/08/07 08:29:29;;;;;;;6.93;3.50;;;18.90;99.90;;;;;;5019906;28;20500;-57
2023/08/07 08:31:57;;;;;;;2.60;2.00;;;18.90;99.90;;;;;;5020336;28;20450;-55
2023/08/07 08:34:26;;;;;;;2.60;2.23;;;18.70;99.90;;;;;;5020518;28;20478;-56
2023/08/07 08:36:53;;;;;;;3.67;2.60;;;18.50;99.90;;;;;;5020149;28;20449;-58
2023/08/07 08:39:20;;;;;;;3.20;2.17;;;18.30;99.90;;;;;;5020035;28;20469;-52
2023/08/07 08:41:48;;;;;;;3.30;1.97;;;18.20;99.90;;;;;;5006163;28;20522;-60
2023/08/07 08:44:17;;;;;;;3.67;2.80;;;18.20;99.90;;;;;;5009407;28;20533;-56
2023/08/07 08:46:44;;;;;;;10.33;2.60;;;18.50;99.90;;;;;;5019165;28;20545;-57
2023/08/07 08:49:25;;;;;;;3.23;2.73;;;18.90;99.90;;;;;;5018847;28;20453;-57
2023/08/07 08:51:56;;;;;;;2.90;2.50;;;19.00;99.90;;;;;;5019557;28;20473;-56
2023/08/07 08:54:23;;;;;;;3.30;2.10;;;19.20;99.90;;;;;;5020310;28;20468;-60
2023/08/07 08:56:54;;;;;;;29.80;8.77;;;19.30;99.90;;;;;;5019615;28;20476;-62
2023/08/07 08:59:22;;;;;;;6.00;2.90;;;19.40;99.90;;;;;;5000537;28;20454;-63
2023/08/07 09:01:51;;;;;;;5.53;2.03;;;19.60;99.90;;;;;;4998483;28;20461;-63
2023/08/07 09:04:20;;;;;;;2.13;1.93;;;19.70;99.90;;;;;;5002797;28;20469;-61
2023/08/07 09:06:47;;;;;;;2.40;2.20;;;19.60;99.90;;;;;;5010780;28;20450;-57
2023/08/07 09:09:15;;;;;;;3.20;2.30;;;19.60;99.90;;;;;;5000444;28;20512;-62
2023/08/07 09:11:43;;;;;;;2.23;1.67;;;19.80;99.90;;;;;;5007362;28;20513;-61
2023/08/07 09:14:12;;;;;;;6.70;2.17;;;20.10;99.90;;;;;;5014494;28;20521;-60
2023/08/07 09:16:40;;;;;;;3.50;2.00;;;20.30;99.90;;;;;;5017933;28;20442;-61
2023/08/07 09:19:08;;;;;;;5.17;2.27;;;20.30;99.90;;;;;;5017933;28;20466;-60
2023/08/07 09:21:35;;;;;;;2.53;2.33;;;20.10;99.90;;;;;;5017239;28;20446;-57
2023/08/07 09:24:02;;;;;;;2.20;2.00;;;19.70;99.90;;;;;;5017137;28;20500;-60
2023/08/07 09:26:29;;;;;;;2.60;2.20;;;19.30;99.90;;;;;;5017059;28;20442;-60
2023/08/07 09:28:59;;;;;;;5.60;2.00;;;19.00;99.90;;;;;;5007008;28;20508;-61
2023/08/07 09:31:30;;;;;;;5.43;2.37;;;18.80;99.90;;;;;;5000991;28;20474;-60
2023/08/07 09:34:03;;;;;;;2.10;1.90;;;18.80;99.90;;;;;;5015295;28;20422;-63
2023/08/07 09:36:31;;;;;;;4.30;2.37;;;18.90;99.90;;;;;;5001534;28;20502;-57
2023/08/07 09:39:01;;;;;;;3.27;2.10;;;19.00;99.90;;;;;;5003337;28;20442;-58
2023/08/07 09:41:30;;;;;;;2.43;2.07;;;19.30;99.90;;;;;;5009966;28;20481;-58
2023/08/07 09:43:57;;;;;;;2.70;2.23;;;19.30;99.90;;;;;;5012069;28;20532;-60
2023/08/07 09:46:26;;;;;;;2.63;2.00;;;19.40;99.90;;;;;;5016866;28;20452;-54
2023/08/07 09:48:53;;;;;;;1.90;1.70;;;19.40;99.90;;;;;;5017067;28;20505;-54
2023/08/07 09:51:20;;;;;;;2.03;1.70;;;19.50;99.90;;;;;;5017195;28;20469;-58
2023/08/07 09:53:49;;;;;;;2.00;1.50;;;19.70;99.90;;;;;;5016399;28;20496;-57
2023/08/07 09:56:17;;;;;;;3.83;1.90;;;19.90;99.90;;;;;;5016433;28;20477;-55
2023/08/07 09:58:48;;;;;;;3.43;2.00;;;20.10;99.90;;;;;;5016215;28;20999;-58
2023/08/07 10:01:18;;;;;;;2.77;2.03;;;20.10;99.90;;;;;;5016649;28;20422;-59
2023/08/07 10:03:48;;;;;;;5.90;2.10;;;20.20;99.90;;;;;;5016440;28;20458;-57
2023/08/07 10:06:15;;;;;;;2.63;1.70;;;20.20;99.90;;;;;;4999899;28;20430;-59
2023/08/07 10:08:44;;;;;;;2.50;1.93;;;20.20;99.90;;;;;;4997066;28;20518;-58
2023/08/07 10:11:11;;;;;;;2.27;1.77;;;20.00;99.90;;;;;;4997092;28;20834;-58
2023/08/07 10:13:39;;;;;;;8.23;1.90;;;19.80;99.90;;;;;;4996778;28;20453;-61
2023/08/07 10:16:07;;;;;;;4.97;1.83;;;19.90;99.90;;;;;;4996636;28;20559;-60
2023/08/07 10:18:34;;;;;;;2.33;2.03;;;20.00;99.90;;;;;;4996662;28;20492;-62
2023/08/07 10:21:03;;;;;;;1.97;1.77;;;20.20;99.90;;;;;;4997039;28;20470;-59
2023/08/07 10:23:31;;;;;;;2.90;1.60;;;20.30;99.90;;;;;;5008103;28;20553;-59
2023/08/07 10:26:00;;;;;;;1.80;1.50;;;20.20;99.90;;;;;;5009707;28;20448;-58
2023/08/07 10:28:28;;;;;;;2.50;1.83;;;20.00;99.90;;;;;;4996603;28;20938;-60
2023/08/07 10:30:57;;;;;;;2.67;1.97;;;20.00;99.90;;;;;;4996517;28;20477;-58
2023/08/07 10:33:27;;;;;;;1.70;1.50;;;20.10;99.90;;;;;;4999956;28;20477;-60
2023/08/07 10:35:53;;;;;;;4.60;2.07;;;20.10;99.90;;;;;;5005724;28;20462;-59
2023/08/07 10:38:24;;;;;;;4.07;1.67;;;20.10;99.90;;;;;;5007807;28;20470;-60
2023/08/07 10:41:00;;;;;;;1.60;1.40;;;20.10;99.90;;;;;;4996602;28;20454;-60
2023/08/07 10:43:28;;;;;;;3.40;1.70;;;20.00;99.90;;;;;;5000438;28;21024;-60
2023/08/07 10:46:06;;;;;;;3.23;2.03;;;20.00;99.90;;;;;;5012066;28;20489;-60
2023/08/07 10:48:40;;;;;;;2.53;1.60;;;20.10;99.90;;;;;;5015685;28;20453;-59
2023/08/07 10:51:07;;;;;;;4.50;1.50;;;20.10;99.90;;;;;;5016181;28;20490;-59
2023/08/07 10:53:36;;;;;;;6.50;3.03;;;20.00;99.90;;;;;;5016570;28;20445;-57
2023/08/07 10:56:04;;;;;;;2.27;1.60;;;20.00;99.90;;;;;;5015888;28;20474;-55
2023/08/07 10:58:36;;;;;;;2.00;1.53;;;20.00;99.90;;;;;;5015819;28;20456;-63
2023/08/07 11:01:28;;;;;;;8.17;2.03;;;20.00;99.90;;;;;;5015628;28;20474;-59
2023/08/07 11:03:56;;;;;;;2.37;2.00;;;20.00;99.90;;;;;;5016236;28;20474;-61
2023/08/07 11:06:26;;;;;;;2.97;1.40;;;19.90;99.90;;;;;;5016363;28;20473;-60
2023/08/07 11:08:53;;;;;;;4.40;1.60;;;20.00;99.90;;;;;;5015904;28;20438;-60
2023/08/07 11:11:20;;;;;;;2.83;1.27;;;20.00;99.90;;;;;;5015424;28;20473;-59
2023/08/07 11:13:47;;;;;;;3.73;1.60;;;19.80;99.90;;;;;;5015649;28;20442;-58
2023/08/07 11:16:14;;;;;;;2.93;1.80;;;19.50;99.90;;;;;;5015697;28;20446;-61
2023/08/07 11:18:43;;;;;;;2.13;1.43;;;19.20;99.90;;;;;;5015594;28;20465;-58
2023/08/07 11:21:11;;;;;;;2.40;1.60;;;18.90;99.90;;;;;;5015692;28;20446;-55
2023/08/07 11:23:38;;;;;;;3.10;2.23;;;18.80;99.90;;;;;;5015381;28;20489;-61
2023/08/07 11:26:05;;;;;;;2.87;1.90;;;18.80;99.90;;;;;;5015704;28;20445;-54
2023/08/07 11:28:34;;;;;;;1.93;1.67;;;18.80;99.90;;;;;;5015787;28;20457;-60
2023/08/07 11:31:02;;;;;;;2.77;1.90;;;19.00;99.90;;;;;;5016011;28;20418;-60
2023/08/07 11:33:30;;;;;;;1.97;1.60;;;19.20;99.90;;;;;;5016082;28;20442;-57
2023/08/07 11:35:58;;;;;;;2.60;1.73;;;19.40;99.90;;;;;;5015171;28;20481;-61
2023/08/07 11:38:32;;;;;;;2.40;1.30;;;19.40;99.90;;;;;;5015697;28;20453;-57
2023/08/07 11:41:01;;;;;;;3.80;1.80;;;19.30;99.90;;;;;;5015761;28;20454;-56
2023/08/07 11:43:34;;;;;;;4.80;1.83;;;19.10;99.90;;;;;;5015686;28;20510;-61
2023/08/07 11:46:03;;;;;;;4.70;2.67;;;19.00;99.90;;;;;;5015249;28;20481;-58
2023/08/07 11:48:31;;;;;;;3.10;1.90;;;18.90;99.90;;;;;;5015900;28;20453;-59
2023/08/07 11:51:00;;;;;;;4.70;2.30;;;18.90;99.90;;;;;;5015256;28;20819;-59
2023/08/07 11:53:29;;;;;;;4.13;2.50;;;18.70;99.90;;;;;;5015414;28;20426;-59
2023/08/07 11:55:58;;;;;;;2.60;1.77;;;18.60;99.90;;;;;;5015655;28;20470;-61
2023/08/07 11:58:26;;;;;;;2.67;1.70;;;18.80;99.90;;;;;;5015444;28;20446;-56
2023/08/07 12:00:54;;;;;;;9.73;1.93;;;18.90;99.90;;;;;;5016463;28;20461;-61
2023/08/07 12:03:26;;;;;;;4.23;1.90;;;19.10;99.90;;;;;;5019282;28;20486;-61
2023/08/07 12:05:53;;;;;;;2.50;1.57;;;19.30;99.90;;;;;;5019386;28;20446;-62
2023/08/07 12:08:22;;;;;;;4.30;1.90;;;19.40;99.90;;;;;;5018955;28;20466;-60
2023/08/07 12:10:52;;;;;;;2.17;1.90;;;19.60;99.90;;;;;;5018400;28;20444;-57
2023/08/07 12:13:24;;;;;;;2.97;1.90;;;19.70;99.90;;;;;;5018885;28;20449;-58
2023/08/07 12:15:54;;;;;;;2.30;1.60;;;19.80;99.90;;;;;;5019036;28;20454;-61
2023/08/07 12:18:22;;;;;;;1.97;1.60;;;19.80;99.90;;;;;;5018976;28;20442;-61
2023/08/07 12:20:50;;;;;;;4.37;3.43;;;19.80;99.90;;;;;;5018074;28;20430;-61
2023/08/07 12:23:21;;;;;;;3.20;1.90;;;19.90;99.90;;;;;;5017643;28;20497;-59
2023/08/07 12:25:50;;;;;;;2.53;1.57;;;19.90;99.90;;;;;;5017911;28;20962;-61
2023/08/07 12:28:17;;;;;;;4.83;2.27;;;19.90;99.90;;;;;;5018226;28;20464;-62
2023/08/07 12:30:46;;;;;;;2.10;1.83;;;19.90;99.90;;;;;;5008749;28;20920;-61
2023/08/07 12:33:14;;;;;;;3.10;1.80;;;19.80;99.90;;;;;;5017984;28;20426;-61
2023/08/07 12:35:41;;;;;;;4.30;1.90;;;19.60;99.90;;;;;;5017403;28;20456;-60
2023/08/07 12:38:09;;;;;;;4.70;1.83;;;19.50;99.90;;;;;;5000420;28;20834;-60
2023/08/07 12:40:36;;;;;;;2.70;2.13;;;19.50;99.90;;;;;;5012807;28;20444;-57
2023/08/07 12:43:05;;;;;;;3.17;1.70;;;19.40;99.90;;;;;;5016771;28;20477;-57
2023/08/07 12:45:32;;;;;;;4.60;1.43;;;19.30;99.90;;;;;;5018532;28;20473;-60
2023/08/07 12:47:59;;;;;;;2.83;1.40;;;19.30;99.90;;;;;;5018381;28;20493;-60
2023/08/07 12:50:29;;;;;;;2.67;1.50;;;19.30;99.90;;;;;;5018371;28;20426;-61